createdAt,value
2023-03-26T00:00:04.797Z,13671.7695
2023-03-26T00:01:06.431Z,13670.0771
2023-03-26T00:02:08.255Z,13672.0000
2023-03-26T00:03:09.703Z,13667.9229
2023-03-26T00:04:11.468Z,13667.8457
2023-03-26T00:05:13.102Z,13664.3848
2023-03-26T00:06:14.664Z,13665.3848
2023-03-26T00:07:16.403Z,13670.0000
2023-03-26T00:08:18.068Z,13666.0000
2023-03-26T00:09:19.578Z,13664.5381
2023-03-26T00:10:21.365Z,13667.0771
2023-03-26T00:11:22.937Z,13664.5381
2023-03-26T00:12:24.584Z,13662.8457
2023-03-26T00:13:26.231Z,13660.0000
2023-03-26T00:14:27.862Z,13661.3076
2023-03-26T00:15:29.484Z,13666.6924
2023-03-26T00:16:31.197Z,13660.4619
2023-03-26T00:17:32.830Z,13658.0771
2023-03-26T00:18:34.504Z,13657.7695
2023-03-26T00:19:36.090Z,13658.4619
2023-03-26T00:20:37.740Z,13659.2305
2023-03-26T00:21:39.394Z,13661.3848
2023-03-26T00:22:41.109Z,13662.2305
2023-03-26T00:23:42.671Z,13661.0000
2023-03-26T00:24:44.339Z,13659.3848
2023-03-26T00:25:46.771Z,13660.6152
2023-03-26T00:26:47.648Z,13658.6152
2023-03-26T00:27:49.294Z,13660.3848
2023-03-26T00:28:50.953Z,13663.8457
2023-03-26T00:29:52.563Z,13663.0771
2023-03-26T00:30:54.279Z,13662.6924
2023-03-26T00:31:55.871Z,13663.6924
2023-03-26T00:32:57.570Z,13663.3848
2023-03-26T00:33:59.161Z,13657.2305
2023-03-26T00:35:00.845Z,13663.0771
2023-03-26T00:36:04.397Z,13661.6152
2023-03-26T00:37:04.125Z,13662.3848
2023-03-26T00:38:05.776Z,13660.0771
2023-03-26T00:39:07.417Z,13657.6152
2023-03-26T00:40:09.040Z,13658.2305
2023-03-26T00:41:10.712Z,13658.0771
2023-03-26T00:42:12.342Z,13662.2305
2023-03-26T00:43:14.019Z,13659.1543
2023-03-26T00:44:15.643Z,13660.1543
2023-03-26T00:45:17.304Z,13661.8457
2023-03-26T00:46:18.998Z,13662.5381
2023-03-26T00:47:20.761Z,13658.3076
2023-03-26T00:48:28.846Z,13657.6152
2023-03-26T00:49:23.890Z,13654.9229
2023-03-26T00:50:25.529Z,13656.6152
2023-03-26T00:51:27.218Z,13658.1543
2023-03-26T00:52:28.833Z,13660.5381
2023-03-26T00:53:30.667Z,13658.9229
2023-03-26T00:54:32.142Z,13657.6152
2023-03-26T00:55:33.805Z,13656.2305
2023-03-26T00:56:35.476Z,13654.7695
2023-03-26T00:57:37.185Z,13657.3848
2023-03-26T00:58:38.751Z,13657.1543
2023-03-26T00:59:40.403Z,13653.1543
2023-03-26T01:00:42.034Z,13655.3848
2023-03-26T01:01:43.726Z,13651.3076
2023-03-26T01:02:45.435Z,13653.5381
2023-03-26T01:04:04.830Z,13656.5381
2023-03-26T01:04:48.759Z,13654.9229
2023-03-26T01:05:50.303Z,13653.4619
2023-03-26T01:06:51.916Z,13654.0000
2023-03-26T01:07:53.590Z,13652.3076
2023-03-26T01:08:55.251Z,13651.0771
2023-03-26T01:09:56.871Z,13656.4619
2023-03-26T01:10:58.514Z,13654.0000
2023-03-26T01:12:00.181Z,13652.6152
2023-03-26T01:13:01.812Z,13654.3848
2023-03-26T01:14:03.502Z,13653.3076
2023-03-26T01:15:05.124Z,13649.6924
2023-03-26T01:16:06.822Z,13653.4619
2023-03-26T01:17:08.405Z,13653.5381
2023-03-26T01:18:10.092Z,13651.5381
2023-03-26T01:19:11.721Z,13649.2305
2023-03-26T01:20:13.376Z,13650.6152
2023-03-26T01:21:15.000Z,13652.8457
2023-03-26T01:22:16.687Z,13653.1543
2023-03-26T01:23:18.326Z,13652.2305
2023-03-26T01:24:20.001Z,13652.5381
2023-03-26T01:25:21.604Z,13652.8457
2023-03-26T01:26:23.261Z,13651.0000
2023-03-26T01:27:24.902Z,13648.0771
2023-03-26T01:28:26.573Z,13649.3076
2023-03-26T01:29:28.242Z,13649.3848
2023-03-26T01:30:29.869Z,13650.9229
2023-03-26T01:31:31.483Z,13647.6152
2023-03-26T01:32:33.321Z,13646.3076
2023-03-26T01:33:34.855Z,13646.6924
2023-03-26T01:34:36.502Z,13646.4619
2023-03-26T01:35:38.118Z,13648.0000
2023-03-26T01:36:39.765Z,13646.1543
2023-03-26T01:37:41.381Z,13649.6924
2023-03-26T01:38:43.060Z,13645.3076
2023-03-26T01:39:44.713Z,13648.0000
2023-03-26T01:40:46.351Z,13647.2305
2023-03-26T01:41:47.986Z,13636.8457
2023-03-26T01:42:49.661Z,13637.9229
2023-03-26T01:43:51.289Z,13642.8457
2023-03-26T01:44:52.978Z,13641.7695
2023-03-26T01:45:54.738Z,13645.8457
2023-03-26T01:46:56.339Z,13644.1543
2023-03-26T01:47:57.905Z,13640.0771
2023-03-26T01:48:59.532Z,13643.9229
2023-03-26T01:50:01.207Z,13636.9229
2023-03-26T01:51:02.838Z,13639.3076
2023-03-26T01:52:04.470Z,13635.6924
2023-03-26T01:53:06.143Z,13638.0000
2023-03-26T01:54:07.840Z,13642.2305
2023-03-26T01:55:09.533Z,13640.7695
2023-03-26T01:56:11.172Z,13644.7695
2023-03-26T01:57:12.822Z,13639.6924
2023-03-26T01:58:14.439Z,13637.7695
2023-03-26T01:59:16.117Z,13635.9229
2023-03-26T02:00:17.777Z,13637.6152
2023-03-26T02:01:19.481Z,13631.4619
2023-03-26T02:02:21.173Z,13634.2305
2023-03-26T02:03:22.854Z,13634.6924
2023-03-26T02:04:24.362Z,13631.2305
2023-03-26T02:05:26.063Z,13636.2305
2023-03-26T02:06:27.652Z,13639.0771
2023-03-26T02:07:29.328Z,13635.5381
2023-03-26T02:08:30.963Z,13634.1543
2023-03-26T02:09:32.614Z,13639.6924
2023-03-26T02:10:34.270Z,13638.8457
2023-03-26T02:11:36.224Z,13635.2305
2023-03-26T02:12:37.544Z,13639.3848
2023-03-26T02:13:39.217Z,13638.6924
2023-03-26T02:14:40.862Z,13634.4619
2023-03-26T02:15:42.541Z,13630.5381
2023-03-26T02:16:44.166Z,13639.6924
2023-03-26T02:17:45.827Z,13631.0771
2023-03-26T02:18:47.498Z,13636.3848
2023-03-26T02:19:49.125Z,13639.7695
2023-03-26T02:20:50.773Z,13635.0000
2023-03-26T02:21:52.408Z,13626.5381
2023-03-26T02:22:54.043Z,13629.9229
2023-03-26T02:23:55.715Z,13631.9229
2023-03-26T02:24:57.349Z,13635.0771
2023-03-26T02:25:59.043Z,13633.4619
2023-03-26T02:27:00.642Z,13633.6924
2023-03-26T02:28:02.304Z,13631.4619
2023-03-26T02:29:03.941Z,13628.3076
2023-03-26T02:30:05.606Z,13634.3076
2023-03-26T02:31:07.274Z,13631.3076
2023-03-26T02:32:08.909Z,13626.3848
2023-03-26T02:33:10.591Z,13625.8457
2023-03-26T02:34:12.220Z,13632.0771
2023-03-26T02:35:13.894Z,13631.4619
2023-03-26T02:36:15.601Z,13628.9229
2023-03-26T02:37:17.145Z,13625.7695
2023-03-26T02:38:18.775Z,13625.8457
2023-03-26T02:39:20.445Z,13627.4619
2023-03-26T02:40:22.096Z,13628.7695
2023-03-26T02:41:23.749Z,13630.4619
2023-03-26T02:42:25.385Z,13636.4619
2023-03-26T02:43:27.019Z,13627.3076
2023-03-26T02:44:28.680Z,13633.6924
2023-03-26T02:45:30.315Z,13629.3076
2023-03-26T02:46:32.054Z,13628.5381
2023-03-26T02:47:33.692Z,13626.9229
2023-03-26T02:48:35.271Z,13624.5381
2023-03-26T02:49:36.899Z,13626.0771
2023-03-26T02:50:38.578Z,13619.7695
2023-03-26T02:51:40.210Z,13623.7695
2023-03-26T02:52:41.871Z,13626.9229
2023-03-26T02:53:43.496Z,13623.4619
2023-03-26T02:54:45.154Z,13618.7695
2023-03-26T02:55:46.792Z,13608.6152
2023-03-26T02:56:48.505Z,13621.1543
2023-03-26T02:57:50.096Z,13618.6924
2023-03-26T02:58:51.757Z,13618.3076
2023-03-26T02:59:53.391Z,13614.1543
2023-03-26T03:00:55.143Z,13611.6152
2023-03-26T03:01:56.759Z,13606.3076
2023-03-26T03:02:58.443Z,13606.9229
2023-03-26T03:03:59.984Z,13604.5381
2023-03-26T03:05:01.765Z,13602.6152
2023-03-26T03:06:03.269Z,13605.0000
2023-03-26T03:07:05.069Z,13607.4619
2023-03-26T03:08:06.643Z,13601.3076
2023-03-26T03:09:08.284Z,13602.5381
2023-03-26T03:10:09.973Z,13596.9229
2023-03-26T03:11:11.592Z,13600.9229
2023-03-26T03:12:13.299Z,13598.5381
2023-03-26T03:13:14.941Z,13604.0000
2023-03-26T03:14:16.511Z,13596.6924
2023-03-26T03:15:18.247Z,13599.5381
2023-03-26T03:16:19.921Z,13601.1543
2023-03-26T03:17:21.559Z,13598.7695
2023-03-26T03:18:23.194Z,13602.1543
2023-03-26T03:19:24.745Z,13600.3848
2023-03-26T03:20:26.363Z,13597.7695
2023-03-26T03:21:28.037Z,13601.0771
2023-03-26T03:22:29.689Z,13597.2305
2023-03-26T03:23:31.319Z,13593.6152
2023-03-26T03:24:32.961Z,13590.2305
2023-03-26T03:25:34.636Z,13596.7695
2023-03-26T03:26:36.253Z,13596.1543
2023-03-26T03:27:37.949Z,13594.6924
2023-03-26T03:28:39.566Z,13595.4619
2023-03-26T03:29:41.212Z,13595.9229
2023-03-26T03:30:42.897Z,13594.3848
2023-03-26T03:31:44.520Z,13593.9229
2023-03-26T03:32:46.238Z,13597.1543
2023-03-26T03:33:47.819Z,13596.6152
2023-03-26T03:34:49.438Z,13598.4619
2023-03-26T03:35:51.113Z,13598.2305
2023-03-26T03:36:52.726Z,13595.5381
2023-03-26T03:37:54.415Z,13596.9229
2023-03-26T03:38:56.041Z,13594.0000
2023-03-26T03:39:57.694Z,13594.0771
2023-03-26T03:40:59.324Z,13592.5381
2023-03-26T03:42:00.998Z,13596.8457
2023-03-26T03:43:02.665Z,13597.5381
2023-03-26T03:44:04.300Z,13596.4619
2023-03-26T03:45:05.928Z,13597.2305
2023-03-26T03:46:07.639Z,13598.3848
2023-03-26T03:47:09.211Z,13599.6924
2023-03-26T03:48:10.942Z,13592.3076
2023-03-26T03:49:12.526Z,13593.5381
2023-03-26T03:50:14.200Z,13594.1543
2023-03-26T03:51:15.841Z,13594.5381
2023-03-26T03:52:17.487Z,13590.6152
2023-03-26T03:53:19.144Z,13592.0000
2023-03-26T03:54:20.786Z,13590.1543
2023-03-26T03:55:22.409Z,13599.0000
2023-03-26T03:56:24.101Z,13599.7695
2023-03-26T03:57:25.728Z,13595.8457
2023-03-26T03:58:27.424Z,13594.3848
2023-03-26T03:59:29.004Z,13588.2305
2023-03-26T04:00:30.696Z,13592.6924
2023-03-26T04:01:32.304Z,13586.2305
2023-03-26T04:02:34.076Z,13586.0771
2023-03-26T04:03:35.778Z,13589.3076
2023-03-26T04:04:37.331Z,13598.5381
2023-03-26T04:05:38.920Z,13584.4619
2023-03-26T04:06:40.579Z,13589.4619
2023-03-26T04:07:42.206Z,13591.1543
2023-03-26T04:08:43.995Z,13590.3848
2023-03-26T04:09:45.504Z,13589.6152
2023-03-26T04:10:47.163Z,13589.2305
2023-03-26T04:11:48.802Z,13595.3076
2023-03-26T04:12:50.461Z,13593.7695
2023-03-26T04:13:52.113Z,13594.1543
2023-03-26T04:14:53.756Z,13593.0771
2023-03-26T04:15:55.656Z,13589.0000
2023-03-26T04:16:57.061Z,13587.6152
2023-03-26T04:17:58.760Z,13588.5381
2023-03-26T04:19:00.371Z,13585.7695
2023-03-26T04:20:01.983Z,13590.6152
2023-03-26T04:21:03.638Z,13591.4619
2023-03-26T04:22:05.288Z,13591.1543
2023-03-26T04:23:06.948Z,13593.0771
2023-03-26T04:24:08.597Z,13591.9229
2023-03-26T04:25:10.259Z,13593.4619
2023-03-26T04:26:11.867Z,13585.7695
2023-03-26T04:27:13.527Z,13591.2305
2023-03-26T04:28:15.162Z,13591.0000
2023-03-26T04:29:16.844Z,13597.0000
2023-03-26T04:30:18.456Z,13587.2305
2023-03-26T04:31:20.163Z,13590.6152
2023-03-26T04:32:21.773Z,13588.2305
2023-03-26T04:33:23.438Z,13593.3848
2023-03-26T04:34:25.127Z,13588.1543
2023-03-26T04:35:26.763Z,13588.0771
2023-03-26T04:36:28.390Z,13581.3848
2023-03-26T04:37:30.020Z,13586.7695
2023-03-26T04:38:31.645Z,13591.5381
2023-03-26T04:39:33.352Z,13590.9229
2023-03-26T04:40:34.969Z,13588.4619
2023-03-26T04:41:36.630Z,13589.0771
2023-03-26T04:42:38.253Z,13589.2305
2023-03-26T04:43:39.929Z,13586.6924
2023-03-26T04:44:41.638Z,13594.6924
2023-03-26T04:45:43.209Z,13589.5381
2023-03-26T04:46:44.853Z,13588.3076
2023-03-26T04:47:46.802Z,13585.4619
2023-03-26T04:48:48.141Z,13588.3076
2023-03-26T04:49:49.839Z,13588.5381
2023-03-26T04:50:51.448Z,13589.9229
2023-03-26T04:51:53.095Z,13587.0000
2023-03-26T04:52:54.750Z,13586.9229
2023-03-26T04:53:56.418Z,13588.5381
2023-03-26T04:54:58.060Z,13589.6924
2023-03-26T04:55:59.699Z,13584.1543
2023-03-26T04:57:01.343Z,13588.3076
2023-03-26T04:58:02.986Z,13586.0771
2023-03-26T04:59:04.628Z,13588.1543
2023-03-26T05:00:06.317Z,13592.6152
2023-03-26T05:01:10.318Z,13584.1543
2023-03-26T05:02:09.620Z,13590.7695
2023-03-26T05:03:11.218Z,13583.3076
2023-03-26T05:04:12.893Z,13585.8457
2023-03-26T05:05:14.543Z,13583.9229
2023-03-26T05:06:16.195Z,13588.1543
2023-03-26T05:07:17.819Z,13583.3076
2023-03-26T05:08:19.492Z,13581.0771
2023-03-26T05:09:21.126Z,13583.0771
2023-03-26T05:10:22.869Z,13587.1543
2023-03-26T05:11:24.430Z,13578.3848
2023-03-26T05:12:26.100Z,13580.8457
2023-03-26T05:13:27.713Z,13584.0771
2023-03-26T05:14:29.390Z,13585.4619
2023-03-26T05:15:31.053Z,13583.0771
2023-03-26T05:16:32.706Z,13577.3848
2023-03-26T05:17:34.382Z,13581.2305
2023-03-26T05:18:36.015Z,13578.6924
2023-03-26T05:19:37.624Z,13582.9229
2023-03-26T05:20:39.328Z,13585.6152
2023-03-26T05:21:40.933Z,13583.0000
2023-03-26T05:22:42.592Z,13583.4619
2023-03-26T05:23:44.233Z,13578.3076
2023-03-26T05:24:45.911Z,13580.2305
2023-03-26T05:25:47.567Z,13581.7695
2023-03-26T05:26:49.205Z,13579.8457
2023-03-26T05:27:50.820Z,13582.6152
2023-03-26T05:28:52.733Z,13581.2305
2023-03-26T05:29:54.109Z,13581.8457
2023-03-26T05:30:55.984Z,13579.6924
2023-03-26T05:31:57.432Z,13582.3076
2023-03-26T05:32:59.125Z,13579.4619
2023-03-26T05:34:00.861Z,13585.2305
2023-03-26T05:35:02.352Z,13580.1543
2023-03-26T05:36:04.081Z,13581.0000
2023-03-26T05:37:05.667Z,13587.1543
2023-03-26T05:38:07.317Z,13579.6152
2023-03-26T05:39:08.947Z,13576.4619
2023-03-26T05:40:10.640Z,13579.3848
2023-03-26T05:41:12.285Z,13580.1543
2023-03-26T05:42:13.922Z,13576.3076
2023-03-26T05:43:15.549Z,13577.7695
2023-03-26T05:44:17.234Z,13585.4619
2023-03-26T05:45:18.853Z,13586.2305
2023-03-26T05:46:20.653Z,13583.0771
2023-03-26T05:47:22.143Z,13587.5381
2023-03-26T05:48:23.828Z,13580.8457
2023-03-26T05:49:25.460Z,13575.6924
2023-03-26T05:50:27.129Z,13579.6924
2023-03-26T05:51:28.775Z,13581.9229
2023-03-26T05:52:30.430Z,13567.9229
2023-03-26T05:53:32.066Z,13577.6152
2023-03-26T05:54:33.740Z,13580.0771
2023-03-26T05:55:35.365Z,13581.0000
2023-03-26T05:56:37.175Z,13581.9229
2023-03-26T05:57:38.734Z,13581.6152
2023-03-26T05:58:40.413Z,13583.3076
2023-03-26T05:59:42.029Z,13579.3076
2023-03-26T06:00:43.705Z,13582.6924
2023-03-26T06:01:45.362Z,13576.4619
2023-03-26T06:02:47.091Z,13583.0000
2023-03-26T06:03:48.707Z,13581.3848
2023-03-26T06:04:50.349Z,13578.2305
2023-03-26T06:05:51.933Z,13583.0000
2023-03-26T06:06:53.634Z,13578.3848
2023-03-26T06:07:55.224Z,13579.2305
2023-03-26T06:09:01.910Z,13573.0000
2023-03-26T06:09:58.533Z,13583.9229
2023-03-26T06:11:00.221Z,13576.2305
2023-03-26T06:12:01.874Z,13579.2305
2023-03-26T06:13:03.513Z,13580.6924
2023-03-26T06:14:05.126Z,13581.7695
2023-03-26T06:15:06.807Z,13573.8457
2023-03-26T06:16:08.459Z,13577.5381
2023-03-26T06:17:10.180Z,13575.8457
2023-03-26T06:18:11.791Z,13577.3848
2023-03-26T06:19:13.519Z,13902.6924
2023-03-26T06:20:15.037Z,14192.6152
2023-03-26T06:21:16.704Z,14318.3076
2023-03-26T06:22:18.358Z,14301.3076
2023-03-26T06:23:19.996Z,14258.6152
2023-03-26T06:24:21.630Z,14265.2305
2023-03-26T06:25:23.295Z,14342.1543
2023-03-26T06:26:24.936Z,14357.4619
2023-03-26T06:27:26.625Z,14363.6152
2023-03-26T06:28:28.244Z,14374.7695
2023-03-26T06:29:29.918Z,14357.0000
2023-03-26T06:30:31.551Z,14373.9229
2023-03-26T06:31:33.257Z,14387.6924
2023-03-26T06:32:34.913Z,14321.6924
2023-03-26T06:33:36.517Z,14220.0000
2023-03-26T06:34:38.146Z,14182.3848
2023-03-26T06:35:39.855Z,14121.4619
2023-03-26T06:36:41.465Z,14113.9229
2023-03-26T06:37:43.146Z,14104.4619
2023-03-26T06:38:44.770Z,14113.4619
2023-03-26T06:39:46.429Z,14107.2305
2023-03-26T06:40:48.069Z,14108.0000
2023-03-26T06:41:49.730Z,14066.6924
2023-03-26T06:43:08.643Z,14069.1543
2023-03-26T06:43:53.048Z,14058.0771
2023-03-26T06:44:54.669Z,14035.1543
2023-03-26T06:45:56.357Z,13935.8457
2023-03-26T06:46:58.046Z,13849.0771
2023-03-26T06:47:59.734Z,13900.6924
2023-03-26T06:49:01.283Z,13846.5381
2023-03-26T06:50:02.977Z,13872.6924
2023-03-26T06:51:04.608Z,13817.7695
2023-03-26T06:52:06.274Z,13832.9229
2023-03-26T06:53:07.913Z,13856.6924
2023-03-26T06:54:09.563Z,13863.5381
2023-03-26T06:55:11.220Z,13914.1543
2023-03-26T06:56:12.873Z,13884.3076
2023-03-26T06:57:14.527Z,13889.8457
2023-03-26T06:58:16.210Z,13897.0000
2023-03-26T06:59:17.846Z,13888.0771
2023-03-26T07:00:19.485Z,13839.1543
2023-03-26T07:01:21.165Z,13805.7695
2023-03-26T07:02:22.819Z,13806.0000
2023-03-26T07:03:24.433Z,13819.3848
2023-03-26T07:04:26.110Z,13805.1543
2023-03-26T07:05:27.781Z,13801.6924
2023-03-26T07:06:29.391Z,13726.3848
2023-03-26T07:07:31.047Z,13756.1543
2023-03-26T07:08:32.720Z,13737.0000
2023-03-26T07:09:34.360Z,13720.6924
2023-03-26T07:10:35.987Z,13708.0000
2023-03-26T07:11:37.656Z,13691.8457
2023-03-26T07:12:39.292Z,13676.7695
2023-03-26T07:13:40.978Z,13675.6924
2023-03-26T07:14:42.601Z,13670.6152
2023-03-26T07:15:44.282Z,13658.3076
2023-03-26T07:16:45.903Z,13650.7695
2023-03-26T07:17:47.577Z,13637.6924
2023-03-26T07:18:49.452Z,13595.8457
2023-03-26T07:19:50.874Z,13560.0771
2023-03-26T07:20:52.605Z,13555.5381
2023-03-26T07:21:54.177Z,13543.5381
2023-03-26T07:22:55.801Z,13547.3076
2023-03-26T07:23:57.493Z,13523.6152
2023-03-26T07:24:59.111Z,13536.9229
2023-03-26T07:26:00.786Z,13510.0771
2023-03-26T07:27:02.429Z,13486.7695
2023-03-26T07:28:04.088Z,13441.2305
2023-03-26T07:29:05.728Z,13498.0771
2023-03-26T07:30:07.396Z,13483.5381
2023-03-26T07:31:09.015Z,13451.9229
2023-03-26T07:32:10.680Z,13442.8457
2023-03-26T07:33:12.314Z,13436.3076
2023-03-26T07:34:14.011Z,13434.5381
2023-03-26T07:35:15.629Z,13422.1543
2023-03-26T07:36:17.304Z,13388.5381
2023-03-26T07:37:18.925Z,13386.3076
2023-03-26T07:38:20.592Z,13403.4619
2023-03-26T07:39:22.250Z,13394.3076
2023-03-26T07:40:23.900Z,13384.0000
2023-03-26T07:41:25.537Z,13408.2305
2023-03-26T07:42:27.223Z,13415.4619
2023-03-26T07:43:28.852Z,13400.5381
2023-03-26T07:44:30.525Z,13405.3076
2023-03-26T07:45:32.165Z,13396.4619
2023-03-26T07:46:33.800Z,13396.6924
2023-03-26T07:47:35.478Z,13394.6924
2023-03-26T07:48:37.104Z,13397.0771
2023-03-26T07:49:38.758Z,13396.1543
2023-03-26T07:50:40.410Z,13403.6924
2023-03-26T07:51:42.048Z,13410.4619
2023-03-26T07:52:43.708Z,13397.5381
2023-03-26T07:53:45.341Z,13376.1543
2023-03-26T07:54:47.048Z,13372.6152
2023-03-26T07:55:48.663Z,13361.9229
2023-03-26T07:56:50.386Z,13376.9229
2023-03-26T07:57:51.936Z,13393.6924
2023-03-26T07:58:53.615Z,13404.0000
2023-03-26T07:59:55.266Z,13418.0771
2023-03-26T08:00:57.125Z,13438.8457
2023-03-26T08:01:58.543Z,13445.5381
2023-03-26T08:03:00.286Z,13447.7695
2023-03-26T08:04:23.424Z,13442.5381
2023-03-26T08:05:03.597Z,13443.0000
2023-03-26T08:06:05.134Z,13438.5381
2023-03-26T08:07:06.803Z,13433.7695
2023-03-26T08:08:08.443Z,13415.4619
2023-03-26T08:09:10.109Z,13409.3076
2023-03-26T08:10:12.016Z,13410.6152
2023-03-26T08:11:13.422Z,13416.9229
2023-03-26T08:12:15.039Z,13413.1543
2023-03-26T08:13:16.732Z,13409.8457
2023-03-26T08:14:18.336Z,13409.6152
2023-03-26T08:15:20.037Z,13402.4619
2023-03-26T08:16:21.666Z,13405.0771
2023-03-26T08:17:23.346Z,13398.5381
2023-03-26T08:18:24.942Z,13400.5381
2023-03-26T08:19:26.612Z,13402.3076
2023-03-26T08:20:28.339Z,13411.1543
2023-03-26T08:21:29.918Z,13414.2305
2023-03-26T08:22:31.591Z,13415.1543
2023-03-26T08:23:33.220Z,13411.0000
2023-03-26T08:24:34.893Z,13406.0000
2023-03-26T08:25:38.001Z,13407.3076
2023-03-26T08:26:38.146Z,13414.6924
2023-03-26T08:27:39.809Z,13417.0771
2023-03-26T08:28:41.471Z,13424.8457
2023-03-26T08:29:43.133Z,13421.3076
2023-03-26T08:30:44.812Z,13422.8457
2023-03-26T08:31:46.411Z,13428.3848
2023-03-26T08:32:48.132Z,13428.1543
2023-03-26T08:33:49.731Z,13421.5381
2023-03-26T08:34:51.402Z,13422.7695
2023-03-26T08:35:53.132Z,13425.3848
2023-03-26T08:36:54.721Z,13422.6924
2023-03-26T08:37:56.332Z,13417.7695
2023-03-26T08:38:58.001Z,13420.5381
2023-03-26T08:39:59.643Z,13416.0000
2023-03-26T08:41:01.332Z,13415.9229
2023-03-26T08:42:02.931Z,13420.3848
2023-03-26T08:43:04.602Z,13423.6152
2023-03-26T08:44:06.260Z,13426.1543
2023-03-26T08:45:07.927Z,13423.3076
2023-03-26T08:46:09.597Z,13424.3848
2023-03-26T08:47:11.204Z,13426.3848
2023-03-26T08:48:12.844Z,13427.4619
2023-03-26T08:49:14.501Z,13425.6152
2023-03-26T08:50:16.238Z,13424.0000
2023-03-26T08:51:17.836Z,13424.6924
2023-03-26T08:52:19.446Z,13425.6924
2023-03-26T08:53:21.116Z,13430.0000
2023-03-26T08:54:22.750Z,13426.0771
2023-03-26T08:55:24.423Z,13431.3076
2023-03-26T08:56:26.098Z,13428.3848
2023-03-26T08:57:27.716Z,13425.8457
2023-03-26T08:58:29.352Z,13426.1543
2023-03-26T08:59:31.029Z,13428.7695
2023-03-26T09:00:32.663Z,13426.0000
2023-03-26T09:01:34.393Z,13427.6924
2023-03-26T09:02:36.030Z,13432.9229
2023-03-26T09:03:37.625Z,13428.6152
2023-03-26T09:04:39.272Z,13431.2305
2023-03-26T09:05:40.958Z,13430.4619
2023-03-26T09:06:42.646Z,13426.7695
2023-03-26T09:07:44.293Z,13426.4619
2023-03-26T09:08:54.212Z,13428.3076
2023-03-26T09:09:47.505Z,13425.3076
2023-03-26T09:10:49.154Z,13434.7695
2023-03-26T09:11:50.823Z,13431.4619
2023-03-26T09:12:52.440Z,13432.0771
2023-03-26T09:13:54.132Z,13434.4619
2023-03-26T09:14:55.757Z,13434.8457
2023-03-26T09:15:57.511Z,13432.3076
2023-03-26T09:16:59.080Z,13439.3848
2023-03-26T09:18:00.762Z,13437.9229
2023-03-26T09:19:02.345Z,13439.2305
2023-03-26T09:20:04.026Z,13443.8457
2023-03-26T09:21:05.673Z,13438.4619
2023-03-26T09:22:07.380Z,13426.5381
2023-03-26T09:23:08.960Z,13430.8457
2023-03-26T09:24:10.624Z,13435.3848
2023-03-26T09:25:12.276Z,13440.1543
2023-03-26T09:26:13.929Z,13442.1543
2023-03-26T09:27:15.589Z,13440.9229
2023-03-26T09:28:17.225Z,13443.1543
2023-03-26T09:29:18.855Z,13444.7695
2023-03-26T09:30:20.505Z,13440.8457
2023-03-26T09:31:22.202Z,13441.0000
2023-03-26T09:32:23.942Z,13442.6152
2023-03-26T09:33:25.477Z,13442.0771
2023-03-26T09:34:27.144Z,13439.4619
2023-03-26T09:35:28.764Z,13447.8457
2023-03-26T09:36:30.472Z,13446.8457
2023-03-26T09:37:32.083Z,13446.9229
2023-03-26T09:38:33.741Z,13448.3076
2023-03-26T09:39:35.363Z,13446.1543
2023-03-26T09:40:37.035Z,13448.3848
2023-03-26T09:41:38.658Z,13446.6152
2023-03-26T09:42:40.359Z,13406.1543
2023-03-26T09:43:41.996Z,13857.6152
2023-03-26T09:44:43.628Z,13487.3848
2023-03-26T09:45:45.275Z,13448.0771
2023-03-26T09:46:46.936Z,13470.2305
2023-03-26T09:47:48.648Z,13491.6924
2023-03-26T09:48:50.237Z,13501.3848
2023-03-26T09:49:51.865Z,13496.9229
2023-03-26T09:50:53.719Z,13491.8457
2023-03-26T09:51:55.146Z,13491.5381
2023-03-26T09:52:56.845Z,13477.7695
2023-03-26T09:53:58.447Z,13479.0771
2023-03-26T09:55:00.162Z,13474.9229
2023-03-26T09:56:01.772Z,13472.0000
2023-03-26T09:57:03.465Z,13467.3076
2023-03-26T09:58:05.134Z,13465.5381
2023-03-26T09:59:06.854Z,13464.7695
2023-03-26T10:00:08.423Z,13466.0000
2023-03-26T10:01:10.144Z,13463.0771
2023-03-26T10:02:11.717Z,13487.9229
2023-03-26T10:03:13.465Z,13923.1543
2023-03-26T10:04:15.024Z,14185.5381
2023-03-26T10:05:16.690Z,14267.7695
2023-03-26T10:06:18.313Z,14249.2305
2023-03-26T10:07:19.984Z,14228.8457
2023-03-26T10:08:21.641Z,14221.2305
2023-03-26T10:09:23.290Z,14205.1543
2023-03-26T10:10:24.906Z,14195.6152
2023-03-26T10:11:26.588Z,14179.1543
2023-03-26T10:12:28.222Z,14138.8457
2023-03-26T10:13:29.928Z,14124.3848
2023-03-26T10:14:31.532Z,14110.5381
2023-03-26T10:15:33.198Z,14099.6924
2023-03-26T10:16:34.880Z,14089.3848
2023-03-26T10:17:37.179Z,14079.5381
2023-03-26T10:18:38.166Z,14070.7695
2023-03-26T10:19:39.808Z,14063.2305
2023-03-26T10:20:41.434Z,14056.7695
2023-03-26T10:21:43.096Z,14053.9229
2023-03-26T10:22:44.742Z,14041.3076
2023-03-26T10:23:46.425Z,14031.3848
2023-03-26T10:24:48.044Z,14029.0771
2023-03-26T10:25:49.745Z,14017.9229
2023-03-26T10:27:08.589Z,14016.6924
2023-03-26T10:27:53.014Z,14009.7695
2023-03-26T10:28:54.677Z,14006.0000
2023-03-26T10:29:56.325Z,14004.3076
2023-03-26T10:30:58.118Z,13992.2305
2023-03-26T10:31:59.616Z,13991.4619
2023-03-26T10:33:01.324Z,13983.0771
2023-03-26T10:34:02.959Z,13985.7695
2023-03-26T10:35:04.555Z,13979.0000
2023-03-26T10:36:06.251Z,13982.5381
2023-03-26T10:37:07.851Z,13978.3076
2023-03-26T10:38:09.527Z,13972.6924
2023-03-26T10:39:11.183Z,13973.0771
2023-03-26T10:40:12.830Z,13970.6152
2023-03-26T10:41:14.491Z,13965.9229
2023-03-26T10:42:16.123Z,13965.1543
2023-03-26T10:43:17.763Z,13966.6924
2023-03-26T10:44:19.508Z,13963.2305
2023-03-26T10:45:21.096Z,13956.1543
2023-03-26T10:46:22.772Z,13949.0771
2023-03-26T10:47:24.432Z,13951.8457
2023-03-26T10:48:26.054Z,13945.0000
2023-03-26T10:49:27.750Z,13943.3076
2023-03-26T10:50:29.362Z,13936.1543
2023-03-26T10:51:30.972Z,13931.3076
2023-03-26T10:52:32.670Z,13929.4619
2023-03-26T10:53:34.295Z,13931.5381
2023-03-26T10:54:35.999Z,13930.4619
2023-03-26T10:55:37.596Z,13922.9229
2023-03-26T10:56:39.290Z,13917.3076
2023-03-26T10:57:40.896Z,13920.4619
2023-03-26T10:58:48.590Z,13914.6152
2023-03-26T10:59:44.247Z,13912.1543
2023-03-26T11:00:45.892Z,13910.0771
2023-03-26T11:01:47.524Z,13906.0771
2023-03-26T11:02:49.225Z,13902.0771
2023-03-26T11:03:50.827Z,13896.0771
2023-03-26T11:04:52.517Z,13895.4619
2023-03-26T11:05:54.191Z,13895.1543
2023-03-26T11:06:55.800Z,13895.6152
2023-03-26T11:07:57.430Z,13891.3076
2023-03-26T11:08:59.136Z,13889.3848
2023-03-26T11:10:00.746Z,13881.6924
2023-03-26T11:11:02.395Z,13871.6924
2023-03-26T11:12:26.223Z,13863.8457
2023-03-26T11:13:05.691Z,13852.3848
2023-03-26T11:14:07.339Z,13849.8457
2023-03-26T11:15:09.106Z,13856.0000
2023-03-26T11:16:10.642Z,13844.9229
2023-03-26T11:17:14.915Z,13842.8457
2023-03-26T11:18:13.963Z,13847.8457
2023-03-26T11:19:15.591Z,13832.4619
2023-03-26T11:20:17.292Z,13817.4619
2023-03-26T11:21:20.635Z,13826.5381
2023-03-26T11:22:20.527Z,13822.6924
2023-03-26T11:23:22.211Z,13826.8457